Batson, Mississippi
Current Conditions -  °F | °C
As of 11:53 PM on Sunday 25 Jan 2015 (Local Time) from KHBG Reporting Station
Clear Clear  
Wind Chill: 53°   Ceiling: Unl
Heat Index: 53°   Visibility: 10mi
Dew Point: 36°   Wind: 13mph
Humidity: 52%   Direction: 310°NW
Pressure: 29.94"   Gusts: 18mph
Location:  31.1996°N, 89.2694°W
Report Text: KHBG 260553Z AUTO 31011G16KT 10SM CLR 12/02 A2994 RMK AO2 SLP138 T01170022 10156 20111 401940006 51021
Loading
Personal Weather Stations






























Interactive Weather Map New forecast layout! Learn more

10-Day Weather Forecast

Advertisements
Track Severe Weather on mobile